sensor_id;sensor_type;location;lat;lon;timestamp;P1;durP1;ratioP1;P2;durP2;ratioP2
75220;SDS011;63802;53.232;6.570;2023-06-26T00:01:59;9.98;;;6.00;;
75220;SDS011;63802;53.232;6.570;2023-06-26T00:04:24;11.07;;;6.25;;
75220;SDS011;63802;53.232;6.570;2023-06-26T00:06:49;8.70;;;6.22;;
75220;SDS011;63802;53.232;6.570;2023-06-26T00:09:15;8.38;;;5.88;;
75220;SDS011;63802;53.232;6.570;2023-06-26T00:11:40;9.30;;;5.82;;
75220;SDS011;63802;53.232;6.570;2023-06-26T00:14:05;10.05;;;6.10;;
75220;SDS011;63802;53.232;6.570;2023-06-26T00:16:31;8.30;;;5.55;;
75220;SDS011;63802;53.232;6.570;2023-06-26T00:18:57;8.35;;;5.72;;
75220;SDS011;63802;53.232;6.570;2023-06-26T00:21:24;9.48;;;5.90;;
75220;SDS011;63802;53.232;6.570;2023-06-26T00:23:50;9.90;;;6.00;;
75220;SDS011;63802;53.232;6.570;2023-06-26T00:26:16;11.60;;;5.80;;
75220;SDS011;63802;53.232;6.570;2023-06-26T00:28:41;8.23;;;5.70;;
75220;SDS011;63802;53.232;6.570;2023-06-26T00:31:06;9.85;;;6.07;;
75220;SDS011;63802;53.232;6.570;2023-06-26T00:33:32;10.80;;;6.30;;
75220;SDS011;63802;53.232;6.570;2023-06-26T00:35:57;8.73;;;6.30;;
75220;SDS011;63802;53.232;6.570;2023-06-26T00:38:22;10.23;;;6.47;;
75220;SDS011;63802;53.232;6.570;2023-06-26T00:40:48;8.55;;;5.88;;
75220;SDS011;63802;53.232;6.570;2023-06-26T00:43:13;11.77;;;6.30;;
75220;SDS011;63802;53.232;6.570;2023-06-26T00:45:39;10.77;;;6.45;;
75220;SDS011;63802;53.232;6.570;2023-06-26T00:48:06;10.25;;;6.38;;
75220;SDS011;63802;53.232;6.570;2023-06-26T00:50:31;11.65;;;6.13;;
75220;SDS011;63802;53.232;6.570;2023-06-26T00:52:57;11.55;;;6.82;;
75220;SDS011;63802;53.232;6.570;2023-06-26T00:55:25;10.18;;;6.45;;
75220;SDS011;63802;53.232;6.570;2023-06-26T00:57:52;11.20;;;6.75;;
75220;SDS011;63802;53.232;6.570;2023-06-26T01:00:18;10.30;;;7.05;;
75220;SDS011;63802;53.232;6.570;2023-06-26T01:02:43;10.68;;;6.25;;
75220;SDS011;63802;53.232;6.570;2023-06-26T01:05:09;11.48;;;7.47;;
75220;SDS011;63802;53.232;6.570;2023-06-26T01:07:37;15.15;;;7.20;;
75220;SDS011;63802;53.232;6.570;2023-06-26T01:10:04;11.93;;;6.70;;
75220;SDS011;63802;53.232;6.570;2023-06-26T01:12:31;10.68;;;6.72;;
75220;SDS011;63802;53.232;6.570;2023-06-26T01:14:58;15.07;;;7.47;;
75220;SDS011;63802;53.232;6.570;2023-06-26T01:17:24;12.10;;;7.07;;
75220;SDS011;63802;53.232;6.570;2023-06-26T01:19:52;12.48;;;6.95;;
75220;SDS011;63802;53.232;6.570;2023-06-26T01:22:28;10.20;;;6.80;;
75220;SDS011;63802;53.232;6.570;2023-06-26T01:25:17;10.02;;;6.57;;
75220;SDS011;63802;53.232;6.570;2023-06-26T01:27:54;11.80;;;6.88;;
75220;SDS011;63802;53.232;6.570;2023-06-26T01:30:21;10.85;;;6.63;;
75220;SDS011;63802;53.232;6.570;2023-06-26T01:32:47;10.77;;;6.35;;
75220;SDS011;63802;53.232;6.570;2023-06-26T01:35:14;9.20;;;6.00;;
75220;SDS011;63802;53.232;6.570;2023-06-26T01:37:40;9.85;;;6.60;;
75220;SDS011;63802;53.232;6.570;2023-06-26T01:40:06;11.13;;;6.65;;
75220;SDS011;63802;53.232;6.570;2023-06-26T01:42:34;11.68;;;6.90;;
75220;SDS011;63802;53.232;6.570;2023-06-26T01:45:07;13.90;;;7.15;;
75220;SDS011;63802;53.232;6.570;2023-06-26T01:47:40;11.30;;;6.70;;
75220;SDS011;63802;53.232;6.570;2023-06-26T01:50:22;10.68;;;6.80;;
75220;SDS011;63802;53.232;6.570;2023-06-26T01:58:22;13.80;;;7.38;;
75220;SDS011;63802;53.232;6.570;2023-06-26T02:00:50;10.52;;;7.13;;
75220;SDS011;63802;53.232;6.570;2023-06-26T02:03:15;11.38;;;7.60;;
75220;SDS011;63802;53.232;6.570;2023-06-26T02:05:41;11.93;;;6.97;;
75220;SDS011;63802;53.232;6.570;2023-06-26T02:08:08;12.02;;;7.35;;
75220;SDS011;63802;53.232;6.570;2023-06-26T02:10:36;12.25;;;7.40;;
75220;SDS011;63802;53.232;6.570;2023-06-26T02:13:02;11.57;;;7.40;;
75220;SDS011;63802;53.232;6.570;2023-06-26T02:15:27;11.00;;;7.45;;
75220;SDS011;63802;53.232;6.570;2023-06-26T02:17:53;10.55;;;7.07;;
75220;SDS011;63802;53.232;6.570;2023-06-26T02:20:18;10.68;;;7.47;;
75220;SDS011;63802;53.232;6.570;2023-06-26T02:22:43;13.05;;;7.60;;
75220;SDS011;63802;53.232;6.570;2023-06-26T02:25:09;10.85;;;7.15;;
75220;SDS011;63802;53.232;6.570;2023-06-26T02:27:35;11.00;;;7.47;;
75220;SDS011;63802;53.232;6.570;2023-06-26T02:30:01;11.60;;;7.55;;
75220;SDS011;63802;53.232;6.570;2023-06-26T02:32:26;11.02;;;7.15;;
75220;SDS011;63802;53.232;6.570;2023-06-26T02:34:52;11.98;;;7.75;;
75220;SDS011;63802;53.232;6.570;2023-06-26T02:37:18;11.00;;;7.00;;
75220;SDS011;63802;53.232;6.570;2023-06-26T02:39:43;11.57;;;6.72;;
75220;SDS011;63802;53.232;6.570;2023-06-26T02:42:08;13.02;;;8.13;;
75220;SDS011;63802;53.232;6.570;2023-06-26T02:44:34;13.88;;;7.97;;
75220;SDS011;63802;53.232;6.570;2023-06-26T02:47:02;13.00;;;7.32;;
75220;SDS011;63802;53.232;6.570;2023-06-26T02:49:28;12.77;;;8.25;;
75220;SDS011;63802;53.232;6.570;2023-06-26T02:51:55;10.50;;;7.07;;
75220;SDS011;63802;53.232;6.570;2023-06-26T02:54:20;11.68;;;7.63;;
75220;SDS011;63802;53.232;6.570;2023-06-26T02:56:45;12.55;;;8.07;;
75220;SDS011;63802;53.232;6.570;2023-06-26T02:59:11;13.73;;;8.75;;
75220;SDS011;63802;53.232;6.570;2023-06-26T03:01:36;12.77;;;8.20;;
75220;SDS011;63802;53.232;6.570;2023-06-26T03:04:01;12.38;;;8.18;;
75220;SDS011;63802;53.232;6.570;2023-06-26T03:06:27;14.23;;;8.82;;
75220;SDS011;63802;53.232;6.570;2023-06-26T03:08:52;12.50;;;8.27;;
75220;SDS011;63802;53.232;6.570;2023-06-26T03:11:18;14.63;;;8.48;;
75220;SDS011;63802;53.232;6.570;2023-06-26T03:13:44;12.88;;;7.82;;
75220;SDS011;63802;53.232;6.570;2023-06-26T03:16:09;12.60;;;8.45;;
75220;SDS011;63802;53.232;6.570;2023-06-26T03:18:35;13.95;;;9.55;;
75220;SDS011;63802;53.232;6.570;2023-06-26T03:21:00;14.55;;;9.40;;
75220;SDS011;63802;53.232;6.570;2023-06-26T03:23:26;15.15;;;8.93;;
75220;SDS011;63802;53.232;6.570;2023-06-26T03:25:51;12.63;;;8.80;;
75220;SDS011;63802;53.232;6.570;2023-06-26T03:28:17;11.93;;;8.13;;
75220;SDS011;63802;53.232;6.570;2023-06-26T03:30:42;12.18;;;8.30;;
75220;SDS011;63802;53.232;6.570;2023-06-26T03:33:08;14.27;;;8.50;;
75220;SDS011;63802;53.232;6.570;2023-06-26T03:35:33;13.50;;;8.80;;
75220;SDS011;63802;53.232;6.570;2023-06-26T03:37:59;13.90;;;8.82;;
75220;SDS011;63802;53.232;6.570;2023-06-26T03:40:25;13.55;;;8.43;;
75220;SDS011;63802;53.232;6.570;2023-06-26T03:42:51;13.13;;;8.25;;
75220;SDS011;63802;53.232;6.570;2023-06-26T03:45:16;13.80;;;8.43;;
75220;SDS011;63802;53.232;6.570;2023-06-26T03:47:42;15.65;;;8.43;;
75220;SDS011;63802;53.232;6.570;2023-06-26T03:50:08;13.73;;;9.05;;
75220;SDS011;63802;53.232;6.570;2023-06-26T03:52:33;17.63;;;9.13;;
75220;SDS011;63802;53.232;6.570;2023-06-26T03:54:59;12.90;;;8.05;;
75220;SDS011;63802;53.232;6.570;2023-06-26T03:57:25;14.68;;;9.15;;
75220;SDS011;63802;53.232;6.570;2023-06-26T03:59:51;13.30;;;8.05;;
75220;SDS011;63802;53.232;6.570;2023-06-26T04:02:17;14.30;;;7.97;;
75220;SDS011;63802;53.232;6.570;2023-06-26T04:04:42;12.27;;;8.50;;
75220;SDS011;63802;53.232;6.570;2023-06-26T04:07:08;13.20;;;8.50;;
75220;SDS011;63802;53.232;6.570;2023-06-26T04:09:34;14.77;;;8.45;;
75220;SDS011;63802;53.232;6.570;2023-06-26T04:11:59;13.05;;;8.25;;
75220;SDS011;63802;53.232;6.570;2023-06-26T04:14:24;13.38;;;8.40;;
75220;SDS011;63802;53.232;6.570;2023-06-26T04:16:51;12.65;;;8.45;;
75220;SDS011;63802;53.232;6.570;2023-06-26T04:19:17;14.65;;;8.73;;
75220;SDS011;63802;53.232;6.570;2023-06-26T04:21:42;14.95;;;8.85;;
75220;SDS011;63802;53.232;6.570;2023-06-26T04:24:08;13.65;;;8.68;;
75220;SDS011;63802;53.232;6.570;2023-06-26T04:26:34;14.52;;;9.00;;
75220;SDS011;63802;53.232;6.570;2023-06-26T04:28:59;12.85;;;8.13;;
75220;SDS011;63802;53.232;6.570;2023-06-26T04:31:25;12.10;;;8.00;;
75220;SDS011;63802;53.232;6.570;2023-06-26T04:33:50;13.75;;;8.10;;
75220;SDS011;63802;53.232;6.570;2023-06-26T04:36:18;12.13;;;7.07;;
75220;SDS011;63802;53.232;6.570;2023-06-26T04:38:43;13.38;;;7.45;;
75220;SDS011;63802;53.232;6.570;2023-06-26T04:41:08;13.43;;;7.75;;
75220;SDS011;63802;53.232;6.570;2023-06-26T04:43:34;12.82;;;7.18;;
75220;SDS011;63802;53.232;6.570;2023-06-26T04:46:00;13.80;;;6.50;;
75220;SDS011;63802;53.232;6.570;2023-06-26T04:48:29;13.05;;;6.53;;
75220;SDS011;63802;53.232;6.570;2023-06-26T04:50:56;10.32;;;5.95;;
75220;SDS011;63802;53.232;6.570;2023-06-26T04:53:21;13.75;;;6.80;;
75220;SDS011;63802;53.232;6.570;2023-06-26T04:55:48;11.10;;;5.85;;
75220;SDS011;63802;53.232;6.570;2023-06-26T04:58:14;10.05;;;5.78;;
75220;SDS011;63802;53.232;6.570;2023-06-26T05:00:40;11.35;;;6.10;;
75220;SDS011;63802;53.232;6.570;2023-06-26T05:03:08;12.52;;;6.70;;
75220;SDS011;63802;53.232;6.570;2023-06-26T05:05:37;16.58;;;7.60;;
75220;SDS011;63802;53.232;6.570;2023-06-26T05:08:20;13.57;;;7.53;;
75220;SDS011;63802;53.232;6.570;2023-06-26T05:10:46;16.08;;;8.07;;
75220;SDS011;63802;53.232;6.570;2023-06-26T05:13:12;12.75;;;8.18;;
75220;SDS011;63802;53.232;6.570;2023-06-26T05:15:40;15.60;;;8.00;;
75220;SDS011;63802;53.232;6.570;2023-06-26T05:18:07;18.83;;;8.25;;
75220;SDS011;63802;53.232;6.570;2023-06-26T05:20:33;19.02;;;8.23;;
75220;SDS011;63802;53.232;6.570;2023-06-26T05:23:01;18.60;;;8.32;;
75220;SDS011;63802;53.232;6.570;2023-06-26T05:25:27;21.52;;;9.10;;
75220;SDS011;63802;53.232;6.570;2023-06-26T05:27:54;18.45;;;8.35;;
75220;SDS011;63802;53.232;6.570;2023-06-26T05:30:20;17.70;;;8.70;;
75220;SDS011;63802;53.232;6.570;2023-06-26T05:32:46;15.32;;;7.68;;
75220;SDS011;63802;53.232;6.570;2023-06-26T05:35:13;17.88;;;8.50;;
75220;SDS011;63802;53.232;6.570;2023-06-26T05:37:39;19.13;;;6.85;;
75220;SDS011;63802;53.232;6.570;2023-06-26T05:40:06;16.55;;;6.28;;
75220;SDS011;63802;53.232;6.570;2023-06-26T05:42:33;12.52;;;5.88;;
75220;SDS011;63802;53.232;6.570;2023-06-26T05:44:59;15.68;;;4.88;;
75220;SDS011;63802;53.232;6.570;2023-06-26T05:47:24;17.08;;;5.30;;
75220;SDS011;63802;53.232;6.570;2023-06-26T05:49:50;11.35;;;5.22;;
75220;SDS011;63802;53.232;6.570;2023-06-26T05:52:15;18.85;;;5.88;;
75220;SDS011;63802;53.232;6.570;2023-06-26T05:54:41;17.63;;;5.35;;
75220;SDS011;63802;53.232;6.570;2023-06-26T05:57:07;12.38;;;4.93;;
75220;SDS011;63802;53.232;6.570;2023-06-26T05:59:33;8.98;;;4.40;;
75220;SDS011;63802;53.232;6.570;2023-06-26T06:02:02;10.77;;;4.70;;
75220;SDS011;63802;53.232;6.570;2023-06-26T06:04:27;11.85;;;4.35;;
75220;SDS011;63802;53.232;6.570;2023-06-26T06:06:53;12.70;;;3.80;;
75220;SDS011;63802;53.232;6.570;2023-06-26T06:09:18;11.55;;;4.40;;
75220;SDS011;63802;53.232;6.570;2023-06-26T06:11:44;13.68;;;4.78;;
75220;SDS011;63802;53.232;6.570;2023-06-26T06:14:09;11.82;;;3.95;;
75220;SDS011;63802;53.232;6.570;2023-06-26T06:16:34;14.50;;;3.63;;
75220;SDS011;63802;53.232;6.570;2023-06-26T06:19:00;12.68;;;3.67;;
75220;SDS011;63802;53.232;6.570;2023-06-26T06:21:25;16.00;;;3.80;;
75220;SDS011;63802;53.232;6.570;2023-06-26T06:23:51;11.48;;;3.42;;
75220;SDS011;63802;53.232;6.570;2023-06-26T06:26:16;13.77;;;3.83;;
75220;SDS011;63802;53.232;6.570;2023-06-26T06:28:42;10.15;;;3.20;;
75220;SDS011;63802;53.232;6.570;2023-06-26T06:31:07;10.07;;;2.85;;
75220;SDS011;63802;53.232;6.570;2023-06-26T06:33:32;10.93;;;3.30;;
75220;SDS011;63802;53.232;6.570;2023-06-26T06:35:58;11.43;;;2.83;;
75220;SDS011;63802;53.232;6.570;2023-06-26T06:38:23;10.35;;;3.00;;
75220;SDS011;63802;53.232;6.570;2023-06-26T06:40:49;10.23;;;2.80;;
75220;SDS011;63802;53.232;6.570;2023-06-26T06:43:14;10.73;;;2.78;;
75220;SDS011;63802;53.232;6.570;2023-06-26T06:45:40;8.30;;;2.80;;
75220;SDS011;63802;53.232;6.570;2023-06-26T06:48:06;9.38;;;2.50;;
75220;SDS011;63802;53.232;6.570;2023-06-26T06:50:31;10.13;;;2.80;;
75220;SDS011;63802;53.232;6.570;2023-06-26T06:52:57;10.40;;;2.58;;
75220;SDS011;63802;53.232;6.570;2023-06-26T06:55:22;8.55;;;2.47;;
75220;SDS011;63802;53.232;6.570;2023-06-26T06:57:48;7.90;;;1.95;;
75220;SDS011;63802;53.232;6.570;2023-06-26T07:00:15;10.10;;;2.58;;
75220;SDS011;63802;53.232;6.570;2023-06-26T07:02:42;15.90;;;2.83;;
75220;SDS011;63802;53.232;6.570;2023-06-26T07:05:09;9.68;;;2.70;;
75220;SDS011;63802;53.232;6.570;2023-06-26T07:07:35;10.15;;;2.63;;
75220;SDS011;63802;53.232;6.570;2023-06-26T07:10:11;7.82;;;2.20;;
75220;SDS011;63802;53.232;6.570;2023-06-26T07:12:37;10.25;;;2.50;;
75220;SDS011;63802;53.232;6.570;2023-06-26T07:15:04;5.45;;;2.20;;
75220;SDS011;63802;53.232;6.570;2023-06-26T07:17:30;7.47;;;2.10;;
75220;SDS011;63802;53.232;6.570;2023-06-26T07:19:56;8.07;;;2.20;;
75220;SDS011;63802;53.232;6.570;2023-06-26T07:22:22;7.45;;;2.28;;
75220;SDS011;63802;53.232;6.570;2023-06-26T07:24:48;11.90;;;1.90;;
75220;SDS011;63802;53.232;6.570;2023-06-26T07:27:17;7.13;;;2.08;;
75220;SDS011;63802;53.232;6.570;2023-06-26T07:29:43;10.80;;;1.77;;
75220;SDS011;63802;53.232;6.570;2023-06-26T07:32:09;6.38;;;1.70;;
75220;SDS011;63802;53.232;6.570;2023-06-26T07:34:35;7.97;;;2.15;;
75220;SDS011;63802;53.232;6.570;2023-06-26T07:37:00;6.40;;;2.00;;
75220;SDS011;63802;53.232;6.570;2023-06-26T07:39:26;4.70;;;1.90;;
75220;SDS011;63802;53.232;6.570;2023-06-26T07:41:51;4.30;;;1.52;;
75220;SDS011;63802;53.232;6.570;2023-06-26T07:44:17;10.68;;;1.80;;
75220;SDS011;63802;53.232;6.570;2023-06-26T07:46:42;6.03;;;1.65;;
75220;SDS011;63802;53.232;6.570;2023-06-26T07:49:09;5.22;;;1.38;;
75220;SDS011;63802;53.232;6.570;2023-06-26T07:51:35;7.13;;;1.70;;
75220;SDS011;63802;53.232;6.570;2023-06-26T07:54:00;6.68;;;1.60;;
75220;SDS011;63802;53.232;6.570;2023-06-26T07:56:25;6.60;;;1.45;;
75220;SDS011;63802;53.232;6.570;2023-06-26T07:58:51;4.32;;;1.40;;
75220;SDS011;63802;53.232;6.570;2023-06-26T08:01:17;4.80;;;1.30;;
75220;SDS011;63802;53.232;6.570;2023-06-26T08:03:43;4.40;;;1.50;;
75220;SDS011;63802;53.232;6.570;2023-06-26T08:06:08;7.35;;;2.03;;
75220;SDS011;63802;53.232;6.570;2023-06-26T08:08:33;5.22;;;1.48;;
75220;SDS011;63802;53.232;6.570;2023-06-26T08:10:59;7.03;;;1.70;;
75220;SDS011;63802;53.232;6.570;2023-06-26T08:13:24;4.93;;;1.70;;
75220;SDS011;63802;53.232;6.570;2023-06-26T08:15:50;5.97;;;2.05;;
75220;SDS011;63802;53.232;6.570;2023-06-26T08:18:16;3.28;;;1.60;;
75220;SDS011;63802;53.232;6.570;2023-06-26T08:20:41;5.38;;;1.70;;
75220;SDS011;63802;53.232;6.570;2023-06-26T08:23:07;4.13;;;1.60;;
75220;SDS011;63802;53.232;6.570;2023-06-26T08:25:32;5.97;;;1.85;;
75220;SDS011;63802;53.232;6.570;2023-06-26T08:27:58;6.07;;;1.98;;
75220;SDS011;63802;53.232;6.570;2023-06-26T08:30:24;5.32;;;2.00;;
75220;SDS011;63802;53.232;6.570;2023-06-26T08:32:52;7.18;;;2.28;;
75220;SDS011;63802;53.232;6.570;2023-06-26T08:35:19;7.38;;;1.92;;
75220;SDS011;63802;53.232;6.570;2023-06-26T08:37:44;7.57;;;1.77;;
75220;SDS011;63802;53.232;6.570;2023-06-26T08:40:10;7.55;;;2.20;;
75220;SDS011;63802;53.232;6.570;2023-06-26T08:42:37;13.93;;;1.80;;
75220;SDS011;63802;53.232;6.570;2023-06-26T08:45:02;7.47;;;1.98;;
75220;SDS011;63802;53.232;6.570;2023-06-26T08:47:28;8.65;;;2.03;;
75220;SDS011;63802;53.232;6.570;2023-06-26T08:50:11;7.50;;;2.00;;
75220;SDS011;63802;53.232;6.570;2023-06-26T08:55:33;6.68;;;2.00;;
75220;SDS011;63802;53.232;6.570;2023-06-26T08:58:03;3.90;;;1.80;;
75220;SDS011;63802;53.232;6.570;2023-06-26T09:00:29;6.35;;;2.00;;
75220;SDS011;63802;53.232;6.570;2023-06-26T09:02:55;5.70;;;2.22;;
75220;SDS011;63802;53.232;6.570;2023-06-26T09:05:21;2.78;;;1.60;;
75220;SDS011;63802;53.232;6.570;2023-06-26T09:07:47;6.35;;;1.90;;
75220;SDS011;63802;53.232;6.570;2023-06-26T09:10:12;4.57;;;1.90;;
75220;SDS011;63802;53.232;6.570;2023-06-26T09:12:37;6.85;;;2.03;;
75220;SDS011;63802;53.232;6.570;2023-06-26T09:15:04;7.70;;;1.90;;
75220;SDS011;63802;53.232;6.570;2023-06-26T09:17:33;4.07;;;1.88;;
75220;SDS011;63802;53.232;6.570;2023-06-26T09:20:03;5.18;;;1.95;;
75220;SDS011;63802;53.232;6.570;2023-06-26T09:22:29;5.82;;;2.10;;
75220;SDS011;63802;53.232;6.570;2023-06-26T09:27:23;6.22;;;2.10;;
75220;SDS011;63802;53.232;6.570;2023-06-26T09:29:49;6.90;;;2.05;;
75220;SDS011;63802;53.232;6.570;2023-06-26T09:32:15;5.55;;;1.85;;
75220;SDS011;63802;53.232;6.570;2023-06-26T09:34:41;4.53;;;2.10;;
75220;SDS011;63802;53.232;6.570;2023-06-26T09:37:11;8.13;;;2.15;;
75220;SDS011;63802;53.232;6.570;2023-06-26T09:39:37;4.82;;;2.00;;
75220;SDS011;63802;53.232;6.570;2023-06-26T09:42:02;5.60;;;1.98;;
75220;SDS011;63802;53.232;6.570;2023-06-26T09:44:31;6.45;;;1.95;;
75220;SDS011;63802;53.232;6.570;2023-06-26T09:46:57;6.03;;;2.25;;
75220;SDS011;63802;53.232;6.570;2023-06-26T09:49:23;6.22;;;2.30;;
75220;SDS011;63802;53.232;6.570;2023-06-26T09:51:49;6.80;;;2.80;;
75220;SDS011;63802;53.232;6.570;2023-06-26T09:54:16;6.05;;;2.30;;
75220;SDS011;63802;53.232;6.570;2023-06-26T09:56:42;5.97;;;2.42;;
75220;SDS011;63802;53.232;6.570;2023-06-26T09:59:09;7.55;;;2.55;;
75220;SDS011;63802;53.232;6.570;2023-06-26T10:01:39;4.18;;;2.22;;
75220;SDS011;63802;53.232;6.570;2023-06-26T10:04:06;5.43;;;2.30;;
75220;SDS011;63802;53.232;6.570;2023-06-26T10:06:33;8.93;;;2.58;;
75220;SDS011;63802;53.232;6.570;2023-06-26T10:11:29;5.90;;;2.40;;
75220;SDS011;63802;53.232;6.570;2023-06-26T10:14:11;8.85;;;2.78;;
75220;SDS011;63802;53.232;6.570;2023-06-26T10:16:38;7.50;;;2.60;;
75220;SDS011;63802;53.232;6.570;2023-06-26T10:19:11;6.25;;;2.67;;
75220;SDS011;63802;53.232;6.570;2023-06-26T10:21:39;4.97;;;2.70;;
75220;SDS011;63802;53.232;6.570;2023-06-26T10:24:05;3.60;;;2.45;;
75220;SDS011;63802;53.232;6.570;2023-06-26T10:26:32;4.75;;;2.20;;
75220;SDS011;63802;53.232;6.570;2023-06-26T10:29:03;6.07;;;2.47;;
75220;SDS011;63802;53.232;6.570;2023-06-26T10:31:31;3.20;;;2.03;;
75220;SDS011;63802;53.232;6.570;2023-06-26T10:33:59;5.35;;;2.53;;
75220;SDS011;63802;53.232;6.570;2023-06-26T10:36:29;4.03;;;2.22;;
75220;SDS011;63802;53.232;6.570;2023-06-26T10:38:56;4.82;;;2.40;;
75220;SDS011;63802;53.232;6.570;2023-06-26T10:41:30;7.93;;;2.97;;
75220;SDS011;63802;53.232;6.570;2023-06-26T10:44:08;6.25;;;2.20;;
75220;SDS011;63802;53.232;6.570;2023-06-26T10:46:56;3.47;;;2.40;;
75220;SDS011;63802;53.232;6.570;2023-06-26T10:49:25;5.97;;;2.60;;
75220;SDS011;63802;53.232;6.570;2023-06-26T10:51:52;4.00;;;2.47;;
75220;SDS011;63802;53.232;6.570;2023-06-26T10:54:19;4.40;;;2.80;;
75220;SDS011;63802;53.232;6.570;2023-06-26T10:56:47;5.35;;;2.60;;
75220;SDS011;63802;53.232;6.570;2023-06-26T10:59:15;7.03;;;2.58;;
75220;SDS011;63802;53.232;6.570;2023-06-26T11:02:04;3.78;;;2.33;;
75220;SDS011;63802;53.232;6.570;2023-06-26T11:07:21;7.32;;;2.08;;
75220;SDS011;63802;53.232;6.570;2023-06-26T11:12:38;4.70;;;2.17;;
75220;SDS011;63802;53.232;6.570;2023-06-26T11:15:16;4.05;;;2.20;;
75220;SDS011;63802;53.232;6.570;2023-06-26T11:17:44;5.70;;;2.03;;
75220;SDS011;63802;53.232;6.570;2023-06-26T11:20:14;5.15;;;2.10;;
75220;SDS011;63802;53.232;6.570;2023-06-26T11:22:43;6.90;;;1.88;;
75220;SDS011;63802;53.232;6.570;2023-06-26T11:25:09;5.35;;;1.85;;
75220;SDS011;63802;53.232;6.570;2023-06-26T11:30:08;6.85;;;1.95;;
75220;SDS011;63802;53.232;6.570;2023-06-26T11:32:35;4.28;;;1.77;;
75220;SDS011;63802;53.232;6.570;2023-06-26T11:35:01;8.07;;;2.00;;
75220;SDS011;63802;53.232;6.570;2023-06-26T11:37:29;10.32;;;2.03;;
75220;SDS011;63802;53.232;6.570;2023-06-26T11:39:56;5.32;;;1.83;;
75220;SDS011;63802;53.232;6.570;2023-06-26T11:42:22;5.03;;;1.70;;
75220;SDS011;63802;53.232;6.570;2023-06-26T11:44:49;4.63;;;1.50;;
75220;SDS011;63802;53.232;6.570;2023-06-26T11:49:46;12.77;;;2.00;;
75220;SDS011;63802;53.232;6.570;2023-06-26T11:52:13;8.98;;;1.58;;
75220;SDS011;63802;53.232;6.570;2023-06-26T11:54:39;7.38;;;1.60;;
75220;SDS011;63802;53.232;6.570;2023-06-26T11:57:04;7.43;;;2.20;;
75220;SDS011;63802;53.232;6.570;2023-06-26T11:59:32;5.90;;;1.40;;
75220;SDS011;63802;53.232;6.570;2023-06-26T12:02:05;8.18;;;1.70;;
75220;SDS011;63802;53.232;6.570;2023-06-26T12:04:41;5.57;;;1.60;;
75220;SDS011;63802;53.232;6.570;2023-06-26T12:07:08;9.13;;;1.63;;
75220;SDS011;63802;53.232;6.570;2023-06-26T12:09:41;9.05;;;2.20;;
75220;SDS011;63802;53.232;6.570;2023-06-26T12:12:09;6.72;;;1.52;;
75220;SDS011;63802;53.232;6.570;2023-06-26T12:14:35;5.15;;;1.55;;
75220;SDS011;63802;53.232;6.570;2023-06-26T12:17:22;5.80;;;1.95;;
75220;SDS011;63802;53.232;6.570;2023-06-26T12:19:50;6.88;;;1.65;;
75220;SDS011;63802;53.232;6.570;2023-06-26T12:22:16;6.47;;;2.28;;
75220;SDS011;63802;53.232;6.570;2023-06-26T12:27:11;5.00;;;1.50;;
75220;SDS011;63802;53.232;6.570;2023-06-26T12:29:46;6.32;;;1.83;;
75220;SDS011;63802;53.232;6.570;2023-06-26T12:32:16;4.88;;;1.52;;
75220;SDS011;63802;53.232;6.570;2023-06-26T12:34:41;7.90;;;1.92;;
75220;SDS011;63802;53.232;6.570;2023-06-26T12:37:11;6.85;;;1.65;;
75220;SDS011;63802;53.232;6.570;2023-06-26T12:42:18;6.22;;;1.75;;
75220;SDS011;63802;53.232;6.570;2023-06-26T12:44:53;4.35;;;1.75;;
75220;SDS011;63802;53.232;6.570;2023-06-26T12:47:26;4.45;;;1.67;;
75220;SDS011;63802;53.232;6.570;2023-06-26T12:49:53;4.43;;;1.70;;
75220;SDS011;63802;53.232;6.570;2023-06-26T12:52:18;3.75;;;1.70;;
75220;SDS011;63802;53.232;6.570;2023-06-26T12:54:51;4.95;;;1.67;;
75220;SDS011;63802;53.232;6.570;2023-06-26T12:57:17;5.90;;;1.50;;
75220;SDS011;63802;53.232;6.570;2023-06-26T12:59:43;4.68;;;1.30;;
75220;SDS011;63802;53.232;6.570;2023-06-26T13:02:08;2.85;;;1.50;;
75220;SDS011;63802;53.232;6.570;2023-06-26T13:04:36;5.43;;;1.58;;
75220;SDS011;63802;53.232;6.570;2023-06-26T13:07:02;6.63;;;1.63;;
75220;SDS011;63802;53.232;6.570;2023-06-26T13:09:32;5.18;;;1.50;;
75220;SDS011;63802;53.232;6.570;2023-06-26T13:11:58;5.78;;;1.80;;
75220;SDS011;63802;53.232;6.570;2023-06-26T13:14:24;4.15;;;1.55;;
75220;SDS011;63802;53.232;6.570;2023-06-26T13:16:49;3.90;;;1.33;;
75220;SDS011;63802;53.232;6.570;2023-06-26T13:19:15;5.50;;;1.55;;
75220;SDS011;63802;53.232;6.570;2023-06-26T13:21:40;3.33;;;1.70;;
75220;SDS011;63802;53.232;6.570;2023-06-26T13:24:06;2.40;;;1.42;;
75220;SDS011;63802;53.232;6.570;2023-06-26T13:26:32;10.88;;;2.17;;
75220;SDS011;63802;53.232;6.570;2023-06-26T13:28:58;4.15;;;1.40;;
75220;SDS011;63802;53.232;6.570;2023-06-26T13:31:23;8.15;;;1.98;;
75220;SDS011;63802;53.232;6.570;2023-06-26T13:33:48;8.77;;;2.38;;
75220;SDS011;63802;53.232;6.570;2023-06-26T13:36:15;4.35;;;1.63;;
75220;SDS011;63802;53.232;6.570;2023-06-26T13:38:41;3.92;;;1.85;;
75220;SDS011;63802;53.232;6.570;2023-06-26T13:41:06;6.57;;;1.83;;
75220;SDS011;63802;53.232;6.570;2023-06-26T13:43:32;5.25;;;1.90;;
75220;SDS011;63802;53.232;6.570;2023-06-26T13:45:59;7.13;;;2.00;;
75220;SDS011;63802;53.232;6.570;2023-06-26T13:48:25;7.75;;;2.20;;
75220;SDS011;63802;53.232;6.570;2023-06-26T13:50:52;5.05;;;1.70;;
75220;SDS011;63802;53.232;6.570;2023-06-26T13:53:17;3.90;;;1.75;;
75220;SDS011;63802;53.232;6.570;2023-06-26T13:55:43;14.00;;;2.00;;
75220;SDS011;63802;53.232;6.570;2023-06-26T13:58:09;10.20;;;1.90;;
75220;SDS011;63802;53.232;6.570;2023-06-26T14:00:36;7.10;;;2.00;;
75220;SDS011;63802;53.232;6.570;2023-06-26T14:03:05;4.40;;;1.90;;
75220;SDS011;63802;53.232;6.570;2023-06-26T14:05:35;6.60;;;2.10;;
75220;SDS011;63802;53.232;6.570;2023-06-26T14:08:02;6.22;;;1.70;;
75220;SDS011;63802;53.232;6.570;2023-06-26T14:10:29;3.70;;;1.70;;
75220;SDS011;63802;53.232;6.570;2023-06-26T14:12:56;6.57;;;1.95;;
75220;SDS011;63802;53.232;6.570;2023-06-26T14:15:21;4.88;;;1.90;;
75220;SDS011;63802;53.232;6.570;2023-06-26T14:17:47;6.70;;;2.00;;
75220;SDS011;63802;53.232;6.570;2023-06-26T14:20:15;6.30;;;2.33;;
75220;SDS011;63802;53.232;6.570;2023-06-26T14:22:41;8.80;;;2.00;;
75220;SDS011;63802;53.232;6.570;2023-06-26T14:25:10;2.88;;;1.73;;
75220;SDS011;63802;53.232;6.570;2023-06-26T14:27:37;13.93;;;2.00;;
75220;SDS011;63802;53.232;6.570;2023-06-26T14:30:03;5.65;;;2.10;;
75220;SDS011;63802;53.232;6.570;2023-06-26T14:32:29;7.63;;;2.35;;
75220;SDS011;63802;53.232;6.570;2023-06-26T14:34:56;8.88;;;2.25;;
75220;SDS011;63802;53.232;6.570;2023-06-26T14:37:21;9.63;;;1.88;;
75220;SDS011;63802;53.232;6.570;2023-06-26T14:39:47;4.43;;;1.83;;
75220;SDS011;63802;53.232;6.570;2023-06-26T14:42:12;7.43;;;1.88;;
75220;SDS011;63802;53.232;6.570;2023-06-26T14:44:38;6.03;;;1.83;;
75220;SDS011;63802;53.232;6.570;2023-06-26T14:47:03;5.65;;;1.80;;
75220;SDS011;63802;53.232;6.570;2023-06-26T14:49:30;7.78;;;1.77;;
75220;SDS011;63802;53.232;6.570;2023-06-26T14:51:56;4.00;;;1.80;;
75220;SDS011;63802;53.232;6.570;2023-06-26T14:54:22;8.70;;;2.00;;
75220;SDS011;63802;53.232;6.570;2023-06-26T14:56:47;8.25;;;2.10;;
75220;SDS011;63802;53.232;6.570;2023-06-26T14:59:14;3.28;;;1.60;;
75220;SDS011;63802;53.232;6.570;2023-06-26T15:01:39;4.90;;;1.58;;
75220;SDS011;63802;53.232;6.570;2023-06-26T15:04:06;8.70;;;1.88;;
75220;SDS011;63802;53.232;6.570;2023-06-26T15:06:31;6.20;;;1.92;;
75220;SDS011;63802;53.232;6.570;2023-06-26T15:08:57;5.78;;;2.00;;